sensor_id;sensor_type;location;lat;lon;timestamp;P1;durP1;ratioP1;P2;durP2;ratioP2
18899;SDS011;9582;52.018;6.306;2023-08-30T00:00:25;15.85;;;13.23;;
18899;SDS011;9582;52.018;6.306;2023-08-30T00:02:51;14.85;;;13.13;;
18899;SDS011;9582;52.018;6.306;2023-08-30T00:05:18;14.43;;;12.13;;
18899;SDS011;9582;52.018;6.306;2023-08-30T00:07:46;11.73;;;10.63;;
18899;SDS011;9582;52.018;6.306;2023-08-30T00:10:12;12.43;;;10.32;;
18899;SDS011;9582;52.018;6.306;2023-08-30T00:12:39;12.32;;;11.13;;
18899;SDS011;9582;52.018;6.306;2023-08-30T00:15:06;13.05;;;11.65;;
18899;SDS011;9582;52.018;6.306;2023-08-30T00:17:33;13.45;;;12.02;;
18899;SDS011;9582;52.018;6.306;2023-08-30T00:19:59;16.10;;;13.40;;
18899;SDS011;9582;52.018;6.306;2023-08-30T00:22:26;14.52;;;13.02;;
18899;SDS011;9582;52.018;6.306;2023-08-30T00:24:55;15.95;;;13.25;;
18899;SDS011;9582;52.018;6.306;2023-08-30T00:27:21;15.07;;;12.98;;
18899;SDS011;9582;52.018;6.306;2023-08-30T00:29:47;16.45;;;12.75;;
18899;SDS011;9582;52.018;6.306;2023-08-30T00:32:14;13.33;;;11.77;;
18899;SDS011;9582;52.018;6.306;2023-08-30T00:34:40;15.10;;;12.80;;
18899;SDS011;9582;52.018;6.306;2023-08-30T00:37:07;14.75;;;12.57;;
18899;SDS011;9582;52.018;6.306;2023-08-30T00:39:33;15.40;;;12.67;;
18899;SDS011;9582;52.018;6.306;2023-08-30T00:42:01;15.10;;;12.07;;
18899;SDS011;9582;52.018;6.306;2023-08-30T00:44:31;13.02;;;11.63;;
18899;SDS011;9582;52.018;6.306;2023-08-30T00:46:57;12.63;;;11.30;;
18899;SDS011;9582;52.018;6.306;2023-08-30T00:49:25;13.63;;;11.07;;
18899;SDS011;9582;52.018;6.306;2023-08-30T00:51:52;13.07;;;11.77;;
18899;SDS011;9582;52.018;6.306;2023-08-30T00:54:18;13.53;;;12.10;;
18899;SDS011;9582;52.018;6.306;2023-08-30T00:56:46;14.23;;;12.68;;
18899;SDS011;9582;52.018;6.306;2023-08-30T00:59:14;14.37;;;12.17;;
18899;SDS011;9582;52.018;6.306;2023-08-30T01:01:41;14.43;;;11.80;;
18899;SDS011;9582;52.018;6.306;2023-08-30T01:04:06;14.98;;;11.73;;
18899;SDS011;9582;52.018;6.306;2023-08-30T01:06:33;14.17;;;11.93;;
18899;SDS011;9582;52.018;6.306;2023-08-30T01:09:00;16.27;;;12.02;;
18899;SDS011;9582;52.018;6.306;2023-08-30T01:11:29;12.23;;;10.98;;
18899;SDS011;9582;52.018;6.306;2023-08-30T01:14:03;14.50;;;12.27;;
18899;SDS011;9582;52.018;6.306;2023-08-30T01:16:35;13.37;;;11.77;;
18899;SDS011;9582;52.018;6.306;2023-08-30T01:19:03;13.90;;;12.10;;
18899;SDS011;9582;52.018;6.306;2023-08-30T01:21:42;13.27;;;11.87;;
18899;SDS011;9582;52.018;6.306;2023-08-30T01:24:18;15.43;;;13.27;;
18899;SDS011;9582;52.018;6.306;2023-08-30T01:27:00;13.93;;;12.43;;
18899;SDS011;9582;52.018;6.306;2023-08-30T01:29:35;13.47;;;12.03;;
18899;SDS011;9582;52.018;6.306;2023-08-30T01:32:04;16.38;;;12.57;;
18899;SDS011;9582;52.018;6.306;2023-08-30T01:34:33;14.53;;;12.03;;
18899;SDS011;9582;52.018;6.306;2023-08-30T01:37:01;12.53;;;11.20;;
18899;SDS011;9582;52.018;6.306;2023-08-30T01:39:28;13.27;;;11.43;;
18899;SDS011;9582;52.018;6.306;2023-08-30T01:41:55;14.27;;;11.93;;
18899;SDS011;9582;52.018;6.306;2023-08-30T01:44:25;14.95;;;11.85;;
18899;SDS011;9582;52.018;6.306;2023-08-30T01:46:54;13.73;;;11.70;;
18899;SDS011;9582;52.018;6.306;2023-08-30T01:49:21;13.73;;;11.93;;
18899;SDS011;9582;52.018;6.306;2023-08-30T01:51:48;14.40;;;11.60;;
18899;SDS011;9582;52.018;6.306;2023-08-30T01:54:17;13.63;;;11.30;;
18899;SDS011;9582;52.018;6.306;2023-08-30T01:56:45;14.27;;;11.30;;
18899;SDS011;9582;52.018;6.306;2023-08-30T01:59:12;13.95;;;11.50;;
18899;SDS011;9582;52.018;6.306;2023-08-30T02:01:40;13.45;;;11.23;;
18899;SDS011;9582;52.018;6.306;2023-08-30T02:04:07;12.10;;;10.80;;
18899;SDS011;9582;52.018;6.306;2023-08-30T02:06:34;12.35;;;10.98;;
18899;SDS011;9582;52.018;6.306;2023-08-30T02:09:09;13.27;;;11.25;;
18899;SDS011;9582;52.018;6.306;2023-08-30T02:11:43;12.50;;;10.65;;
18899;SDS011;9582;52.018;6.306;2023-08-30T02:14:12;11.93;;;10.57;;
18899;SDS011;9582;52.018;6.306;2023-08-30T02:16:43;12.82;;;11.13;;
18899;SDS011;9582;52.018;6.306;2023-08-30T02:19:11;13.43;;;10.87;;
18899;SDS011;9582;52.018;6.306;2023-08-30T02:21:41;14.27;;;11.77;;
18899;SDS011;9582;52.018;6.306;2023-08-30T02:24:09;12.35;;;9.88;;
18899;SDS011;9582;52.018;6.306;2023-08-30T02:26:35;13.00;;;10.43;;
18899;SDS011;9582;52.018;6.306;2023-08-30T02:29:02;13.07;;;10.95;;
18899;SDS011;9582;52.018;6.306;2023-08-30T02:31:29;11.40;;;10.20;;
18899;SDS011;9582;52.018;6.306;2023-08-30T02:33:57;13.37;;;10.80;;
18899;SDS011;9582;52.018;6.306;2023-08-30T02:36:23;14.68;;;10.57;;
18899;SDS011;9582;52.018;6.306;2023-08-30T02:38:50;11.48;;;10.23;;
18899;SDS011;9582;52.018;6.306;2023-08-30T02:41:16;11.82;;;9.90;;
18899;SDS011;9582;52.018;6.306;2023-08-30T02:43:43;13.15;;;10.50;;
18899;SDS011;9582;52.018;6.306;2023-08-30T02:46:09;12.97;;;10.67;;
18899;SDS011;9582;52.018;6.306;2023-08-30T02:48:37;12.27;;;9.80;;
18899;SDS011;9582;52.018;6.306;2023-08-30T02:51:05;12.17;;;9.87;;
18899;SDS011;9582;52.018;6.306;2023-08-30T02:53:31;12.10;;;10.80;;
18899;SDS011;9582;52.018;6.306;2023-08-30T02:55:58;13.60;;;10.50;;
18899;SDS011;9582;52.018;6.306;2023-08-30T02:58:24;11.30;;;10.18;;
18899;SDS011;9582;52.018;6.306;2023-08-30T03:00:56;11.57;;;10.37;;
18899;SDS011;9582;52.018;6.306;2023-08-30T03:03:23;11.75;;;10.48;;
18899;SDS011;9582;52.018;6.306;2023-08-30T03:05:49;14.18;;;12.05;;
18899;SDS011;9582;52.018;6.306;2023-08-30T03:08:17;12.57;;;10.60;;
18899;SDS011;9582;52.018;6.306;2023-08-30T03:10:44;12.50;;;10.17;;
18899;SDS011;9582;52.018;6.306;2023-08-30T03:13:11;13.77;;;11.60;;
18899;SDS011;9582;52.018;6.306;2023-08-30T03:15:38;14.30;;;11.30;;
18899;SDS011;9582;52.018;6.306;2023-08-30T03:18:05;13.85;;;11.95;;
18899;SDS011;9582;52.018;6.306;2023-08-30T03:20:31;15.23;;;11.38;;
18899;SDS011;9582;52.018;6.306;2023-08-30T03:22:58;12.50;;;11.07;;
18899;SDS011;9582;52.018;6.306;2023-08-30T03:25:28;13.05;;;11.18;;
18899;SDS011;9582;52.018;6.306;2023-08-30T03:27:55;12.68;;;11.23;;
18899;SDS011;9582;52.018;6.306;2023-08-30T03:30:22;13.98;;;12.52;;
18899;SDS011;9582;52.018;6.306;2023-08-30T03:32:49;13.82;;;11.68;;
18899;SDS011;9582;52.018;6.306;2023-08-30T03:35:16;15.32;;;12.40;;
18899;SDS011;9582;52.018;6.306;2023-08-30T03:37:42;14.30;;;12.48;;
18899;SDS011;9582;52.018;6.306;2023-08-30T03:40:09;14.48;;;12.55;;
18899;SDS011;9582;52.018;6.306;2023-08-30T03:42:38;15.13;;;12.47;;
18899;SDS011;9582;52.018;6.306;2023-08-30T03:45:05;15.20;;;12.30;;
18899;SDS011;9582;52.018;6.306;2023-08-30T03:47:34;13.70;;;12.13;;
18899;SDS011;9582;52.018;6.306;2023-08-30T03:50:01;14.90;;;12.03;;
18899;SDS011;9582;52.018;6.306;2023-08-30T03:52:28;15.02;;;12.75;;
18899;SDS011;9582;52.018;6.306;2023-08-30T03:54:54;18.57;;;13.60;;
18899;SDS011;9582;52.018;6.306;2023-08-30T03:57:21;15.97;;;13.17;;
18899;SDS011;9582;52.018;6.306;2023-08-30T03:59:49;15.23;;;13.57;;
18899;SDS011;9582;52.018;6.306;2023-08-30T04:02:15;16.87;;;13.90;;
18899;SDS011;9582;52.018;6.306;2023-08-30T04:04:42;17.80;;;15.30;;
18899;SDS011;9582;52.018;6.306;2023-08-30T04:07:08;21.07;;;14.93;;
18899;SDS011;9582;52.018;6.306;2023-08-30T04:09:35;20.23;;;15.73;;
18899;SDS011;9582;52.018;6.306;2023-08-30T04:12:03;18.10;;;15.17;;
18899;SDS011;9582;52.018;6.306;2023-08-30T04:14:30;18.97;;;16.47;;
18899;SDS011;9582;52.018;6.306;2023-08-30T04:16:58;19.87;;;16.13;;
18899;SDS011;9582;52.018;6.306;2023-08-30T04:19:24;17.90;;;15.80;;
18899;SDS011;9582;52.018;6.306;2023-08-30T04:21:50;19.57;;;16.50;;
18899;SDS011;9582;52.018;6.306;2023-08-30T04:24:17;20.77;;;16.23;;
18899;SDS011;9582;52.018;6.306;2023-08-30T04:26:44;18.08;;;15.40;;
18899;SDS011;9582;52.018;6.306;2023-08-30T04:29:15;19.87;;;16.60;;
18899;SDS011;9582;52.018;6.306;2023-08-30T04:31:42;20.93;;;16.03;;
18899;SDS011;9582;52.018;6.306;2023-08-30T04:34:11;21.23;;;16.33;;
18899;SDS011;9582;52.018;6.306;2023-08-30T04:36:37;23.63;;;16.80;;
18899;SDS011;9582;52.018;6.306;2023-08-30T04:39:04;19.03;;;16.13;;
18899;SDS011;9582;52.018;6.306;2023-08-30T04:41:31;18.40;;;15.83;;
18899;SDS011;9582;52.018;6.306;2023-08-30T04:43:58;20.77;;;16.73;;
18899;SDS011;9582;52.018;6.306;2023-08-30T04:46:25;17.07;;;14.93;;
18899;SDS011;9582;52.018;6.306;2023-08-30T04:48:51;21.40;;;16.75;;
18899;SDS011;9582;52.018;6.306;2023-08-30T04:51:20;19.53;;;16.00;;
18899;SDS011;9582;52.018;6.306;2023-08-30T04:53:47;21.83;;;16.63;;
18899;SDS011;9582;52.018;6.306;2023-08-30T04:56:13;19.80;;;16.13;;
18899;SDS011;9582;52.018;6.306;2023-08-30T04:58:43;20.97;;;15.97;;
18899;SDS011;9582;52.018;6.306;2023-08-30T05:01:10;19.03;;;15.97;;
18899;SDS011;9582;52.018;6.306;2023-08-30T05:03:39;21.40;;;17.03;;
18899;SDS011;9582;52.018;6.306;2023-08-30T05:06:08;21.33;;;16.47;;
18899;SDS011;9582;52.018;6.306;2023-08-30T05:08:39;19.50;;;16.17;;
18899;SDS011;9582;52.018;6.306;2023-08-30T05:11:06;20.37;;;17.23;;
18899;SDS011;9582;52.018;6.306;2023-08-30T05:13:34;20.93;;;16.50;;
18899;SDS011;9582;52.018;6.306;2023-08-30T05:16:01;19.53;;;16.60;;
18899;SDS011;9582;52.018;6.306;2023-08-30T05:18:28;21.47;;;17.53;;
18899;SDS011;9582;52.018;6.306;2023-08-30T05:20:54;21.90;;;17.20;;
18899;SDS011;9582;52.018;6.306;2023-08-30T05:23:21;22.20;;;16.77;;
18899;SDS011;9582;52.018;6.306;2023-08-30T05:25:49;21.47;;;18.37;;
18899;SDS011;9582;52.018;6.306;2023-08-30T05:28:16;21.43;;;18.03;;
18899;SDS011;9582;52.018;6.306;2023-08-30T05:30:42;28.83;;;19.33;;
18899;SDS011;9582;52.018;6.306;2023-08-30T05:33:15;22.07;;;18.37;;
18899;SDS011;9582;52.018;6.306;2023-08-30T05:36:00;22.10;;;17.43;;
18899;SDS011;9582;52.018;6.306;2023-08-30T05:38:38;24.30;;;18.97;;
18899;SDS011;9582;52.018;6.306;2023-08-30T05:41:32;23.37;;;17.23;;
18899;SDS011;9582;52.018;6.306;2023-08-30T05:43:59;22.03;;;17.57;;
18899;SDS011;9582;52.018;6.306;2023-08-30T05:46:25;22.33;;;18.38;;
18899;SDS011;9582;52.018;6.306;2023-08-30T05:48:52;22.48;;;17.73;;
18899;SDS011;9582;52.018;6.306;2023-08-30T05:51:19;21.80;;;18.33;;
18899;SDS011;9582;52.018;6.306;2023-08-30T05:53:46;22.63;;;17.33;;
18899;SDS011;9582;52.018;6.306;2023-08-30T05:56:12;23.35;;;18.42;;
18899;SDS011;9582;52.018;6.306;2023-08-30T05:58:40;20.25;;;17.30;;
18899;SDS011;9582;52.018;6.306;2023-08-30T06:01:07;20.70;;;16.88;;
18899;SDS011;9582;52.018;6.306;2023-08-30T06:03:33;20.98;;;16.73;;
18899;SDS011;9582;52.018;6.306;2023-08-30T06:06:00;18.75;;;16.23;;
18899;SDS011;9582;52.018;6.306;2023-08-30T06:08:26;19.48;;;16.13;;
18899;SDS011;9582;52.018;6.306;2023-08-30T06:10:53;19.60;;;16.27;;
18899;SDS011;9582;52.018;6.306;2023-08-30T06:13:19;19.70;;;16.83;;
18899;SDS011;9582;52.018;6.306;2023-08-30T06:15:50;19.73;;;15.50;;
18899;SDS011;9582;52.018;6.306;2023-08-30T06:18:17;18.00;;;15.52;;
18899;SDS011;9582;52.018;6.306;2023-08-30T06:20:44;19.35;;;16.85;;
18899;SDS011;9582;52.018;6.306;2023-08-30T06:23:11;21.25;;;17.33;;
18899;SDS011;9582;52.018;6.306;2023-08-30T06:25:37;22.58;;;16.30;;
18899;SDS011;9582;52.018;6.306;2023-08-30T06:28:04;20.58;;;17.73;;
18899;SDS011;9582;52.018;6.306;2023-08-30T06:30:31;23.50;;;16.55;;
18899;SDS011;9582;52.018;6.306;2023-08-30T06:32:59;20.77;;;17.15;;
18899;SDS011;9582;52.018;6.306;2023-08-30T06:35:25;19.15;;;16.90;;
18899;SDS011;9582;52.018;6.306;2023-08-30T06:37:51;20.52;;;16.85;;
18899;SDS011;9582;52.018;6.306;2023-08-30T06:40:18;21.30;;;17.33;;
18899;SDS011;9582;52.018;6.306;2023-08-30T06:42:45;21.95;;;17.63;;
18899;SDS011;9582;52.018;6.306;2023-08-30T06:45:11;20.38;;;16.75;;
18899;SDS011;9582;52.018;6.306;2023-08-30T06:47:38;22.70;;;17.02;;
18899;SDS011;9582;52.018;6.306;2023-08-30T06:50:06;20.55;;;16.70;;
18899;SDS011;9582;52.018;6.306;2023-08-30T06:52:34;18.95;;;16.23;;
18899;SDS011;9582;52.018;6.306;2023-08-30T06:55:01;19.15;;;16.50;;
18899;SDS011;9582;52.018;6.306;2023-08-30T06:57:28;19.85;;;15.98;;
18899;SDS011;9582;52.018;6.306;2023-08-30T06:59:54;18.98;;;16.40;;
18899;SDS011;9582;52.018;6.306;2023-08-30T07:02:21;20.73;;;15.88;;
18899;SDS011;9582;52.018;6.306;2023-08-30T07:04:47;20.55;;;16.00;;
18899;SDS011;9582;52.018;6.306;2023-08-30T07:07:15;19.65;;;16.27;;
18899;SDS011;9582;52.018;6.306;2023-08-30T07:09:41;19.33;;;16.13;;
18899;SDS011;9582;52.018;6.306;2023-08-30T07:12:08;18.30;;;16.40;;
18899;SDS011;9582;52.018;6.306;2023-08-30T07:14:34;21.63;;;17.90;;
18899;SDS011;9582;52.018;6.306;2023-08-30T07:17:01;20.20;;;16.95;;
18899;SDS011;9582;52.018;6.306;2023-08-30T07:19:27;19.05;;;17.05;;
18899;SDS011;9582;52.018;6.306;2023-08-30T07:21:54;18.67;;;16.17;;
18899;SDS011;9582;52.018;6.306;2023-08-30T07:24:22;20.35;;;17.42;;
18899;SDS011;9582;52.018;6.306;2023-08-30T07:26:48;17.70;;;15.52;;
18899;SDS011;9582;52.018;6.306;2023-08-30T07:29:15;17.17;;;15.32;;
18899;SDS011;9582;52.018;6.306;2023-08-30T07:31:41;18.35;;;15.57;;
18899;SDS011;9582;52.018;6.306;2023-08-30T07:34:08;17.20;;;14.60;;
18899;SDS011;9582;52.018;6.306;2023-08-30T07:36:34;17.25;;;14.48;;
18899;SDS011;9582;52.018;6.306;2023-08-30T07:39:01;15.60;;;13.65;;
18899;SDS011;9582;52.018;6.306;2023-08-30T07:41:29;16.35;;;14.43;;
18899;SDS011;9582;52.018;6.306;2023-08-30T07:43:58;17.90;;;14.50;;
18899;SDS011;9582;52.018;6.306;2023-08-30T07:46:25;16.77;;;14.05;;
18899;SDS011;9582;52.018;6.306;2023-08-30T07:48:51;15.60;;;13.98;;
18899;SDS011;9582;52.018;6.306;2023-08-30T07:51:18;18.50;;;14.52;;
18899;SDS011;9582;52.018;6.306;2023-08-30T07:53:44;14.90;;;13.27;;
18899;SDS011;9582;52.018;6.306;2023-08-30T07:56:11;16.45;;;13.57;;
18899;SDS011;9582;52.018;6.306;2023-08-30T07:58:40;17.52;;;13.48;;
18899;SDS011;9582;52.018;6.306;2023-08-30T08:01:07;17.63;;;14.50;;
18899;SDS011;9582;52.018;6.306;2023-08-30T08:03:34;18.33;;;14.95;;
18899;SDS011;9582;52.018;6.306;2023-08-30T08:06:00;17.27;;;14.43;;
18899;SDS011;9582;52.018;6.306;2023-08-30T08:08:27;18.02;;;14.57;;
18899;SDS011;9582;52.018;6.306;2023-08-30T08:10:53;20.20;;;15.60;;
18899;SDS011;9582;52.018;6.306;2023-08-30T08:13:20;18.08;;;14.52;;
18899;SDS011;9582;52.018;6.306;2023-08-30T08:15:47;19.30;;;15.60;;
18899;SDS011;9582;52.018;6.306;2023-08-30T08:18:14;18.67;;;15.02;;
18899;SDS011;9582;52.018;6.306;2023-08-30T08:20:40;17.52;;;13.68;;
18899;SDS011;9582;52.018;6.306;2023-08-30T08:23:08;16.95;;;12.82;;
18899;SDS011;9582;52.018;6.306;2023-08-30T08:25:35;19.35;;;14.80;;
18899;SDS011;9582;52.018;6.306;2023-08-30T08:28:01;18.02;;;13.27;;
18899;SDS011;9582;52.018;6.306;2023-08-30T08:30:28;16.58;;;13.43;;
18899;SDS011;9582;52.018;6.306;2023-08-30T08:32:57;19.15;;;14.30;;
18899;SDS011;9582;52.018;6.306;2023-08-30T08:35:24;17.55;;;14.02;;
18899;SDS011;9582;52.018;6.306;2023-08-30T08:37:50;22.02;;;15.00;;
18899;SDS011;9582;52.018;6.306;2023-08-30T08:40:17;18.95;;;14.85;;
18899;SDS011;9582;52.018;6.306;2023-08-30T08:42:43;19.27;;;15.48;;
18899;SDS011;9582;52.018;6.306;2023-08-30T08:45:11;21.92;;;15.48;;
18899;SDS011;9582;52.018;6.306;2023-08-30T08:47:41;20.92;;;17.08;;
18899;SDS011;9582;52.018;6.306;2023-08-30T08:50:12;21.88;;;17.77;;
18899;SDS011;9582;52.018;6.306;2023-08-30T08:52:39;23.08;;;18.48;;
18899;SDS011;9582;52.018;6.306;2023-08-30T08:55:06;26.02;;;19.60;;
18899;SDS011;9582;52.018;6.306;2023-08-30T08:57:32;22.73;;;17.75;;
18899;SDS011;9582;52.018;6.306;2023-08-30T08:59:59;32.67;;;20.10;;
18899;SDS011;9582;52.018;6.306;2023-08-30T09:02:25;23.30;;;17.42;;
18899;SDS011;9582;52.018;6.306;2023-08-30T09:04:54;27.55;;;19.27;;
18899;SDS011;9582;52.018;6.306;2023-08-30T09:07:23;23.75;;;18.50;;
18899;SDS011;9582;52.018;6.306;2023-08-30T09:09:51;27.45;;;18.27;;
18899;SDS011;9582;52.018;6.306;2023-08-30T09:12:19;25.48;;;19.63;;
18899;SDS011;9582;52.018;6.306;2023-08-30T09:14:52;25.00;;;18.55;;
18899;SDS011;9582;52.018;6.306;2023-08-30T09:17:20;27.27;;;19.10;;
18899;SDS011;9582;52.018;6.306;2023-08-30T09:19:47;28.42;;;19.33;;
18899;SDS011;9582;52.018;6.306;2023-08-30T09:22:13;24.75;;;18.80;;
18899;SDS011;9582;52.018;6.306;2023-08-30T09:24:41;30.85;;;20.33;;
18899;SDS011;9582;52.018;6.306;2023-08-30T09:27:08;30.05;;;20.10;;
18899;SDS011;9582;52.018;6.306;2023-08-30T09:29:34;26.85;;;20.67;;
18899;SDS011;9582;52.018;6.306;2023-08-30T09:32:01;26.23;;;19.85;;
18899;SDS011;9582;52.018;6.306;2023-08-30T09:34:28;27.95;;;19.80;;
18899;SDS011;9582;52.018;6.306;2023-08-30T09:36:55;29.20;;;21.38;;
18899;SDS011;9582;52.018;6.306;2023-08-30T09:39:24;26.83;;;20.50;;
18899;SDS011;9582;52.018;6.306;2023-08-30T09:41:53;27.58;;;20.70;;
18899;SDS011;9582;52.018;6.306;2023-08-30T09:44:21;24.77;;;19.92;;
18899;SDS011;9582;52.018;6.306;2023-08-30T09:46:50;21.67;;;17.38;;
18899;SDS011;9582;52.018;6.306;2023-08-30T09:49:18;22.67;;;17.73;;
18899;SDS011;9582;52.018;6.306;2023-08-30T09:51:45;22.52;;;16.75;;
18899;SDS011;9582;52.018;6.306;2023-08-30T09:54:14;22.05;;;16.52;;
18899;SDS011;9582;52.018;6.306;2023-08-30T09:56:42;20.88;;;16.60;;
18899;SDS011;9582;52.018;6.306;2023-08-30T09:59:11;17.08;;;14.75;;
18899;SDS011;9582;52.018;6.306;2023-08-30T10:01:39;23.58;;;16.45;;
18899;SDS011;9582;52.018;6.306;2023-08-30T10:04:06;20.50;;;15.52;;
18899;SDS011;9582;52.018;6.306;2023-08-30T10:06:34;18.42;;;14.70;;
18899;SDS011;9582;52.018;6.306;2023-08-30T10:09:01;14.27;;;11.90;;
18899;SDS011;9582;52.018;6.306;2023-08-30T10:11:29;16.73;;;13.27;;
18899;SDS011;9582;52.018;6.306;2023-08-30T10:13:56;18.10;;;14.10;;
18899;SDS011;9582;52.018;6.306;2023-08-30T10:16:26;15.30;;;11.73;;
18899;SDS011;9582;52.018;6.306;2023-08-30T10:18:59;15.38;;;12.40;;
18899;SDS011;9582;52.018;6.306;2023-08-30T10:21:29;15.18;;;11.95;;
18899;SDS011;9582;52.018;6.306;2023-08-30T10:23:57;12.18;;;10.85;;
18899;SDS011;9582;52.018;6.306;2023-08-30T10:26:26;14.10;;;11.80;;
18899;SDS011;9582;52.018;6.306;2023-08-30T10:28:55;12.52;;;10.50;;
18899;SDS011;9582;52.018;6.306;2023-08-30T10:31:23;12.98;;;10.77;;
18899;SDS011;9582;52.018;6.306;2023-08-30T10:33:52;11.35;;;10.15;;
18899;SDS011;9582;52.018;6.306;2023-08-30T10:36:20;10.95;;;9.85;;
18899;SDS011;9582;52.018;6.306;2023-08-30T10:38:48;10.73;;;9.07;;
18899;SDS011;9582;52.018;6.306;2023-08-30T10:41:19;9.25;;;7.75;;
18899;SDS011;9582;52.018;6.306;2023-08-30T10:43:49;9.23;;;8.32;;
18899;SDS011;9582;52.018;6.306;2023-08-30T10:46:17;9.38;;;8.05;;
18899;SDS011;9582;52.018;6.306;2023-08-30T10:49:07;9.68;;;8.70;;
18899;SDS011;9582;52.018;6.306;2023-08-30T10:51:35;9.57;;;8.60;;
18899;SDS011;9582;52.018;6.306;2023-08-30T10:54:09;11.02;;;9.18;;
18899;SDS011;9582;52.018;6.306;2023-08-30T10:56:45;9.98;;;8.85;;
18899;SDS011;9582;52.018;6.306;2023-08-30T10:59:15;10.95;;;9.57;;
18899;SDS011;9582;52.018;6.306;2023-08-30T11:01:42;9.95;;;8.95;;
18899;SDS011;9582;52.018;6.306;2023-08-30T11:04:11;10.70;;;9.55;;
18899;SDS011;9582;52.018;6.306;2023-08-30T11:06:41;10.88;;;9.77;;
18899;SDS011;9582;52.018;6.306;2023-08-30T11:09:08;11.25;;;10.13;;
18899;SDS011;9582;52.018;6.306;2023-08-30T11:11:36;10.15;;;9.10;;
18899;SDS011;9582;52.018;6.306;2023-08-30T11:14:03;11.68;;;10.40;;
18899;SDS011;9582;52.018;6.306;2023-08-30T11:16:30;12.35;;;10.93;;
18899;SDS011;9582;52.018;6.306;2023-08-30T11:18:58;11.75;;;9.95;;
18899;SDS011;9582;52.018;6.306;2023-08-30T11:21:25;11.00;;;10.00;;
18899;SDS011;9582;52.018;6.306;2023-08-30T11:23:52;10.40;;;9.35;;
18899;SDS011;9582;52.018;6.306;2023-08-30T11:26:19;12.40;;;9.13;;
18899;SDS011;9582;52.018;6.306;2023-08-30T11:28:45;10.13;;;9.02;;
18899;SDS011;9582;52.018;6.306;2023-08-30T11:31:17;9.43;;;8.52;;
18899;SDS011;9582;52.018;6.306;2023-08-30T11:33:49;10.80;;;9.70;;
18899;SDS011;9582;52.018;6.306;2023-08-30T11:36:17;11.32;;;10.20;;
18899;SDS011;9582;52.018;6.306;2023-08-30T11:38:45;11.40;;;10.30;;
18899;SDS011;9582;52.018;6.306;2023-08-30T11:41:12;11.38;;;10.27;;
18899;SDS011;9582;52.018;6.306;2023-08-30T11:43:38;10.93;;;10.00;;
18899;SDS011;9582;52.018;6.306;2023-08-30T11:46:06;11.20;;;10.00;;
18899;SDS011;9582;52.018;6.306;2023-08-30T11:48:33;12.48;;;10.15;;
18899;SDS011;9582;52.018;6.306;2023-08-30T11:51:00;11.25;;;10.07;;
18899;SDS011;9582;52.018;6.306;2023-08-30T11:53:27;11.52;;;10.43;;
18899;SDS011;9582;52.018;6.306;2023-08-30T11:55:56;11.55;;;10.38;;
18899;SDS011;9582;52.018;6.306;2023-08-30T11:58:22;11.75;;;10.48;;
18899;SDS011;9582;52.018;6.306;2023-08-30T12:00:49;11.43;;;10.43;;
18899;SDS011;9582;52.018;6.306;2023-08-30T12:03:18;11.82;;;10.73;;
18899;SDS011;9582;52.018;6.306;2023-08-30T12:05:44;11.73;;;9.93;;
18899;SDS011;9582;52.018;6.306;2023-08-30T12:08:17;15.55;;;11.07;;
18899;SDS011;9582;52.018;6.306;2023-08-30T12:10:44;12.98;;;11.60;;
18899;SDS011;9582;52.018;6.306;2023-08-30T12:13:20;13.65;;;12.35;;
18899;SDS011;9582;52.018;6.306;2023-08-30T12:15:47;13.10;;;11.80;;
18899;SDS011;9582;52.018;6.306;2023-08-30T12:18:14;13.80;;;12.40;;
18899;SDS011;9582;52.018;6.306;2023-08-30T12:20:50;13.63;;;12.23;;
18899;SDS011;9582;52.018;6.306;2023-08-30T12:23:21;14.27;;;12.93;;
18899;SDS011;9582;52.018;6.306;2023-08-30T12:25:59;14.00;;;12.70;;
18899;SDS011;9582;52.018;6.306;2023-08-30T12:28:28;14.32;;;12.50;;
18899;SDS011;9582;52.018;6.306;2023-08-30T12:30:55;13.02;;;11.68;;
18899;SDS011;9582;52.018;6.306;2023-08-30T12:33:22;12.82;;;11.52;;
18899;SDS011;9582;52.018;6.306;2023-08-30T12:35:50;13.20;;;11.73;;
18899;SDS011;9582;52.018;6.306;2023-08-30T12:38:16;13.07;;;11.68;;
18899;SDS011;9582;52.018;6.306;2023-08-30T12:40:44;14.13;;;12.68;;
18899;SDS011;9582;52.018;6.306;2023-08-30T12:43:10;11.50;;;10.32;;
18899;SDS011;9582;52.018;6.306;2023-08-30T12:45:39;8.75;;;7.80;;
18899;SDS011;9582;52.018;6.306;2023-08-30T12:48:06;7.60;;;6.30;;
18899;SDS011;9582;52.018;6.306;2023-08-30T12:50:33;8.75;;;7.78;;
18899;SDS011;9582;52.018;6.306;2023-08-30T12:53:00;13.52;;;7.03;;
18899;SDS011;9582;52.018;6.306;2023-08-30T12:55:27;8.50;;;6.63;;
18899;SDS011;9582;52.018;6.306;2023-08-30T12:57:53;7.22;;;5.72;;
18899;SDS011;9582;52.018;6.306;2023-08-30T13:00:20;6.32;;;4.47;;
18899;SDS011;9582;52.018;6.306;2023-08-30T13:02:48;4.78;;;4.03;;
18899;SDS011;9582;52.018;6.306;2023-08-30T13:05:14;7.65;;;4.30;;
18899;SDS011;9582;52.018;6.306;2023-08-30T13:07:41;5.63;;;4.68;;
18899;SDS011;9582;52.018;6.306;2023-08-30T13:10:08;7.47;;;4.57;;
18899;SDS011;9582;52.018;6.306;2023-08-30T13:12:35;6.47;;;4.22;;
18899;SDS011;9582;52.018;6.306;2023-08-30T13:15:02;7.55;;;3.38;;
18899;SDS011;9582;52.018;6.306;2023-08-30T13:17:29;6.93;;;3.72;;
18899;SDS011;9582;52.018;6.306;2023-08-30T13:19:57;5.03;;;3.15;;
18899;SDS011;9582;52.018;6.306;2023-08-30T13:22:23;6.00;;;3.40;;
18899;SDS011;9582;52.018;6.306;2023-08-30T13:24:50;6.55;;;3.72;;
18899;SDS011;9582;52.018;6.306;2023-08-30T13:27:17;4.70;;;3.30;;
18899;SDS011;9582;52.018;6.306;2023-08-30T13:29:43;7.85;;;3.90;;
18899;SDS011;9582;52.018;6.306;2023-08-30T13:32:10;5.95;;;3.47;;
18899;SDS011;9582;52.018;6.306;2023-08-30T13:34:37;6.15;;;3.53;;
18899;SDS011;9582;52.018;6.306;2023-08-30T13:37:05;6.65;;;4.00;;
18899;SDS011;9582;52.018;6.306;2023-08-30T13:39:32;6.40;;;3.03;;
18899;SDS011;9582;52.018;6.306;2023-08-30T13:41:58;5.63;;;3.55;;
18899;SDS011;9582;52.018;6.306;2023-08-30T13:44:25;7.60;;;3.42;;
18899;SDS011;9582;52.018;6.306;2023-08-30T13:46:51;8.40;;;3.22;;
18899;SDS011;9582;52.018;6.306;2023-08-30T13:49:17;5.53;;;2.95;;
18899;SDS011;9582;52.018;6.306;2023-08-30T13:51:44;10.27;;;3.22;;
18899;SDS011;9582;52.018;6.306;2023-08-30T13:54:12;6.80;;;3.17;;
18899;SDS011;9582;52.018;6.306;2023-08-30T13:56:38;5.05;;;2.50;;
18899;SDS011;9582;52.018;6.306;2023-08-30T13:59:06;7.90;;;3.58;;
18899;SDS011;9582;52.018;6.306;2023-08-30T14:01:32;5.03;;;2.95;;
18899;SDS011;9582;52.018;6.306;2023-08-30T14:04:00;5.43;;;2.20;;
18899;SDS011;9582;52.018;6.306;2023-08-30T14:06:29;3.47;;;2.60;;
18899;SDS011;9582;52.018;6.306;2023-08-30T14:08:56;6.28;;;3.30;;
18899;SDS011;9582;52.018;6.306;2023-08-30T14:11:24;5.35;;;2.58;;
18899;SDS011;9582;52.018;6.306;2023-08-30T14:13:50;6.38;;;2.33;;
18899;SDS011;9582;52.018;6.306;2023-08-30T14:16:17;4.88;;;2.55;;
18899;SDS011;9582;52.018;6.306;2023-08-30T14:18:43;5.65;;;2.42;;
18899;SDS011;9582;52.018;6.306;2023-08-30T14:21:10;5.05;;;2.83;;
18899;SDS011;9582;52.018;6.306;2023-08-30T14:23:36;4.00;;;2.67;;
18899;SDS011;9582;52.018;6.306;2023-08-30T14:26:03;6.70;;;2.35;;
18899;SDS011;9582;52.018;6.306;2023-08-30T14:28:35;6.05;;;2.58;;
18899;SDS011;9582;52.018;6.306;2023-08-30T14:31:02;4.70;;;2.50;;
18899;SDS011;9582;52.018;6.306;2023-08-30T14:33:29;6.18;;;2.42;;
18899;SDS011;9582;52.018;6.306;2023-08-30T14:35:56;7.68;;;2.45;;
18899;SDS011;9582;52.018;6.306;2023-08-30T14:38:23;5.05;;;2.25;;
18899;SDS011;9582;52.018;6.306;2023-08-30T14:40:54;6.85;;;2.22;;